sensor_id;sensor_type;location;lat;lon;timestamp;P1;durP1;ratioP1;P2;durP2;ratioP2
56631;SDS011;42503;39.928;-75.152;2023-04-15T00:02:29;4.90;;;3.90;;
56631;SDS011;42503;39.928;-75.152;2023-04-15T00:12:33;6.45;;;3.63;;
56631;SDS011;42503;39.928;-75.152;2023-04-15T00:22:37;6.25;;;3.92;;
56631;SDS011;42503;39.928;-75.152;2023-04-15T00:32:38;4.82;;;4.18;;
56631;SDS011;42503;39.928;-75.152;2023-04-15T00:42:40;5.38;;;3.70;;
56631;SDS011;42503;39.928;-75.152;2023-04-15T00:52:41;5.57;;;3.38;;
56631;SDS011;42503;39.928;-75.152;2023-04-15T01:02:42;4.53;;;3.50;;
56631;SDS011;42503;39.928;-75.152;2023-04-15T01:12:44;5.05;;;3.15;;
56631;SDS011;42503;39.928;-75.152;2023-04-15T01:22:45;4.07;;;3.33;;
56631;SDS011;42503;39.928;-75.152;2023-04-15T01:32:50;7.82;;;3.35;;
56631;SDS011;42503;39.928;-75.152;2023-04-15T01:42:52;5.72;;;3.25;;
56631;SDS011;42503;39.928;-75.152;2023-04-15T01:52:53;5.22;;;3.67;;
56631;SDS011;42503;39.928;-75.152;2023-04-15T02:02:54;11.35;;;3.85;;
56631;SDS011;42503;39.928;-75.152;2023-04-15T02:12:56;7.70;;;4.47;;
56631;SDS011;42503;39.928;-75.152;2023-04-15T02:23:00;5.43;;;3.30;;
56631;SDS011;42503;39.928;-75.152;2023-04-15T02:33:01;10.02;;;3.97;;
56631;SDS011;42503;39.928;-75.152;2023-04-15T02:43:06;8.27;;;3.70;;
56631;SDS011;42503;39.928;-75.152;2023-04-15T02:53:08;4.55;;;3.63;;
56631;SDS011;42503;39.928;-75.152;2023-04-15T03:03:09;4.45;;;3.30;;
56631;SDS011;42503;39.928;-75.152;2023-04-15T03:13:11;3.83;;;2.90;;
56631;SDS011;42503;39.928;-75.152;2023-04-15T03:23:13;4.65;;;3.40;;
56631;SDS011;42503;39.928;-75.152;2023-04-15T03:33:15;3.65;;;2.60;;
56631;SDS011;42503;39.928;-75.152;2023-04-15T03:43:16;3.90;;;3.10;;
56631;SDS011;42503;39.928;-75.152;2023-04-15T03:53:19;7.03;;;3.50;;
56631;SDS011;42503;39.928;-75.152;2023-04-15T04:03:21;3.85;;;2.90;;
56631;SDS011;42503;39.928;-75.152;2023-04-15T04:13:22;4.10;;;2.40;;
56631;SDS011;42503;39.928;-75.152;2023-04-15T04:23:24;3.90;;;2.83;;
56631;SDS011;42503;39.928;-75.152;2023-04-15T04:33:25;6.10;;;2.80;;
56631;SDS011;42503;39.928;-75.152;2023-04-15T04:43:30;4.82;;;3.35;;
56631;SDS011;42503;39.928;-75.152;2023-04-15T04:53:31;4.75;;;2.88;;
56631;SDS011;42503;39.928;-75.152;2023-04-15T05:03:32;5.07;;;2.70;;
56631;SDS011;42503;39.928;-75.152;2023-04-15T05:13:34;5.78;;;2.60;;
56631;SDS011;42503;39.928;-75.152;2023-04-15T05:23:38;4.38;;;2.72;;
56631;SDS011;42503;39.928;-75.152;2023-04-15T05:33:40;4.47;;;3.00;;
56631;SDS011;42503;39.928;-75.152;2023-04-15T05:43:42;5.28;;;2.85;;
56631;SDS011;42503;39.928;-75.152;2023-04-15T05:53:43;2.97;;;2.35;;
56631;SDS011;42503;39.928;-75.152;2023-04-15T06:03:45;5.40;;;2.10;;
56631;SDS011;42503;39.928;-75.152;2023-04-15T06:13:47;5.55;;;2.50;;
56631;SDS011;42503;39.928;-75.152;2023-04-15T06:23:48;4.93;;;2.65;;
56631;SDS011;42503;39.928;-75.152;2023-04-15T06:33:49;3.75;;;2.72;;
56631;SDS011;42503;39.928;-75.152;2023-04-15T06:43:51;2.35;;;2.13;;
56631;SDS011;42503;39.928;-75.152;2023-04-15T06:53:52;3.75;;;2.63;;
56631;SDS011;42503;39.928;-75.152;2023-04-15T07:03:57;3.92;;;2.10;;
56631;SDS011;42503;39.928;-75.152;2023-04-15T07:13:58;3.92;;;2.10;;
56631;SDS011;42503;39.928;-75.152;2023-04-15T07:24:02;3.50;;;2.75;;
56631;SDS011;42503;39.928;-75.152;2023-04-15T07:34:05;2.72;;;1.98;;
56631;SDS011;42503;39.928;-75.152;2023-04-15T07:44:07;3.22;;;2.30;;
56631;SDS011;42503;39.928;-75.152;2023-04-15T07:54:10;2.85;;;2.00;;
56631;SDS011;42503;39.928;-75.152;2023-04-15T08:04:12;2.10;;;1.90;;
56631;SDS011;42503;39.928;-75.152;2023-04-15T08:14:14;2.63;;;1.80;;
56631;SDS011;42503;39.928;-75.152;2023-04-15T08:24:15;2.00;;;1.85;;
56631;SDS011;42503;39.928;-75.152;2023-04-15T08:34:19;2.28;;;1.73;;
56631;SDS011;42503;39.928;-75.152;2023-04-15T08:44:21;3.22;;;2.22;;
56631;SDS011;42503;39.928;-75.152;2023-04-15T08:54:25;4.88;;;1.98;;
56631;SDS011;42503;39.928;-75.152;2023-04-15T09:04:28;2.72;;;1.63;;
56631;SDS011;42503;39.928;-75.152;2023-04-15T09:14:29;4.35;;;1.80;;
56631;SDS011;42503;39.928;-75.152;2023-04-15T09:24:35;3.83;;;1.90;;
56631;SDS011;42503;39.928;-75.152;2023-04-15T09:34:38;3.65;;;1.60;;
56631;SDS011;42503;39.928;-75.152;2023-04-15T09:44:42;2.83;;;1.80;;
56631;SDS011;42503;39.928;-75.152;2023-04-15T09:54:44;3.53;;;1.70;;
56631;SDS011;42503;39.928;-75.152;2023-04-15T10:04:45;2.15;;;1.58;;
56631;SDS011;42503;39.928;-75.152;2023-04-15T10:15:04;2.33;;;1.75;;
56631;SDS011;42503;39.928;-75.152;2023-04-15T10:25:07;3.37;;;1.80;;
56631;SDS011;42503;39.928;-75.152;2023-04-15T10:35:15;2.53;;;1.75;;
56631;SDS011;42503;39.928;-75.152;2023-04-15T10:45:17;2.22;;;1.55;;
56631;SDS011;42503;39.928;-75.152;2023-04-15T10:55:20;1.52;;;1.40;;
56631;SDS011;42503;39.928;-75.152;2023-04-15T11:06:00;3.50;;;1.75;;
56631;SDS011;42503;39.928;-75.152;2023-04-15T11:25:58;1.30;;;1.20;;
56631;SDS011;42503;39.928;-75.152;2023-04-15T11:36:00;3.38;;;1.70;;
56631;SDS011;42503;39.928;-75.152;2023-04-15T11:46:03;2.97;;;2.00;;
56631;SDS011;42503;39.928;-75.152;2023-04-15T11:56:04;3.08;;;1.65;;
56631;SDS011;42503;39.928;-75.152;2023-04-15T12:06:10;3.78;;;2.72;;
56631;SDS011;42503;39.928;-75.152;2023-04-15T12:16:19;4.93;;;2.50;;
56631;SDS011;42503;39.928;-75.152;2023-04-15T12:26:31;4.55;;;2.40;;
56631;SDS011;42503;39.928;-75.152;2023-04-15T12:36:33;5.53;;;3.05;;
56631;SDS011;42503;39.928;-75.152;2023-04-15T12:46:40;7.13;;;2.97;;
56631;SDS011;42503;39.928;-75.152;2023-04-15T12:56:45;5.00;;;2.80;;
56631;SDS011;42503;39.928;-75.152;2023-04-15T13:06:50;8.07;;;3.28;;
56631;SDS011;42503;39.928;-75.152;2023-04-15T13:16:52;7.13;;;3.95;;
56631;SDS011;42503;39.928;-75.152;2023-04-15T13:26:53;7.60;;;2.55;;
56631;SDS011;42503;39.928;-75.152;2023-04-15T13:37:04;6.95;;;2.70;;
56631;SDS011;42503;39.928;-75.152;2023-04-15T13:47:11;5.70;;;3.05;;
56631;SDS011;42503;39.928;-75.152;2023-04-15T13:57:16;5.97;;;3.00;;
56631;SDS011;42503;39.928;-75.152;2023-04-15T14:07:20;5.22;;;2.70;;
56631;SDS011;42503;39.928;-75.152;2023-04-15T14:17:30;5.78;;;3.70;;
56631;SDS011;42503;39.928;-75.152;2023-04-15T14:27:44;6.07;;;3.10;;
56631;SDS011;42503;39.928;-75.152;2023-04-15T14:37:46;7.40;;;3.42;;
56631;SDS011;42503;39.928;-75.152;2023-04-15T14:47:48;5.15;;;3.20;;
56631;SDS011;42503;39.928;-75.152;2023-04-15T14:57:53;6.07;;;3.47;;
56631;SDS011;42503;39.928;-75.152;2023-04-15T15:07:55;6.20;;;3.42;;
56631;SDS011;42503;39.928;-75.152;2023-04-15T15:17:57;5.57;;;3.35;;
56631;SDS011;42503;39.928;-75.152;2023-04-15T15:27:58;5.38;;;3.50;;
56631;SDS011;42503;39.928;-75.152;2023-04-15T15:38:00;4.43;;;3.10;;
56631;SDS011;42503;39.928;-75.152;2023-04-15T15:48:02;6.03;;;2.92;;
56631;SDS011;42503;39.928;-75.152;2023-04-15T15:58:09;4.32;;;2.85;;
56631;SDS011;42503;39.928;-75.152;2023-04-15T16:08:14;5.15;;;3.13;;
56631;SDS011;42503;39.928;-75.152;2023-04-15T16:18:16;3.03;;;2.70;;
56631;SDS011;42503;39.928;-75.152;2023-04-15T16:28:18;4.47;;;2.70;;
56631;SDS011;42503;39.928;-75.152;2023-04-15T16:38:19;4.57;;;2.45;;
56631;SDS011;42503;39.928;-75.152;2023-04-15T16:48:21;4.32;;;2.90;;
56631;SDS011;42503;39.928;-75.152;2023-04-15T16:58:22;2.40;;;2.20;;
56631;SDS011;42503;39.928;-75.152;2023-04-15T17:08:23;3.35;;;2.88;;
56631;SDS011;42503;39.928;-75.152;2023-04-15T17:18:25;3.13;;;2.70;;
56631;SDS011;42503;39.928;-75.152;2023-04-15T17:28:29;4.63;;;2.60;;
56631;SDS011;42503;39.928;-75.152;2023-04-15T17:38:30;2.80;;;2.42;;
56631;SDS011;42503;39.928;-75.152;2023-04-15T17:48:34;4.78;;;2.65;;
56631;SDS011;42503;39.928;-75.152;2023-04-15T17:58:36;5.25;;;2.30;;
56631;SDS011;42503;39.928;-75.152;2023-04-15T18:08:38;5.80;;;2.97;;
56631;SDS011;42503;39.928;-75.152;2023-04-15T18:18:40;3.95;;;2.13;;
56631;SDS011;42503;39.928;-75.152;2023-04-15T18:28:41;3.13;;;2.20;;
56631;SDS011;42503;39.928;-75.152;2023-04-15T18:38:46;2.40;;;2.20;;
56631;SDS011;42503;39.928;-75.152;2023-04-15T18:59:01;9.02;;;2.92;;
56631;SDS011;42503;39.928;-75.152;2023-04-15T19:09:02;9.00;;;2.47;;
56631;SDS011;42503;39.928;-75.152;2023-04-15T19:19:03;10.55;;;2.95;;
56631;SDS011;42503;39.928;-75.152;2023-04-15T19:29:06;6.25;;;2.97;;
56631;SDS011;42503;39.928;-75.152;2023-04-15T19:39:09;3.90;;;2.63;;
56631;SDS011;42503;39.928;-75.152;2023-04-15T19:49:10;8.32;;;3.10;;
56631;SDS011;42503;39.928;-75.152;2023-04-15T19:59:12;8.77;;;3.03;;
56631;SDS011;42503;39.928;-75.152;2023-04-15T20:09:17;4.32;;;2.35;;
56631;SDS011;42503;39.928;-75.152;2023-04-15T20:19:18;8.65;;;3.20;;
56631;SDS011;42503;39.928;-75.152;2023-04-15T20:29:19;5.88;;;3.10;;
56631;SDS011;42503;39.928;-75.152;2023-04-15T20:39:21;5.97;;;3.47;;
56631;SDS011;42503;39.928;-75.152;2023-04-15T20:49:22;7.13;;;3.55;;
56631;SDS011;42503;39.928;-75.152;2023-04-15T20:59:24;11.18;;;3.67;;
56631;SDS011;42503;39.928;-75.152;2023-04-15T21:09:25;11.23;;;3.58;;
56631;SDS011;42503;39.928;-75.152;2023-04-15T21:19:27;5.30;;;2.63;;
56631;SDS011;42503;39.928;-75.152;2023-04-15T21:29:28;6.30;;;2.65;;
56631;SDS011;42503;39.928;-75.152;2023-04-15T21:39:30;4.13;;;2.67;;
56631;SDS011;42503;39.928;-75.152;2023-04-15T21:49:32;6.35;;;2.72;;
56631;SDS011;42503;39.928;-75.152;2023-04-15T21:59:33;5.85;;;3.08;;
56631;SDS011;42503;39.928;-75.152;2023-04-15T22:09:35;5.68;;;2.70;;
56631;SDS011;42503;39.928;-75.152;2023-04-15T22:19:36;6.53;;;2.60;;
56631;SDS011;42503;39.928;-75.152;2023-04-15T22:29:38;18.30;;;3.83;;
56631;SDS011;42503;39.928;-75.152;2023-04-15T22:39:39;11.10;;;2.67;;
56631;SDS011;42503;39.928;-75.152;2023-04-15T22:49:46;7.63;;;2.60;;
56631;SDS011;42503;39.928;-75.152;2023-04-15T22:59:49;11.27;;;2.35;;
56631;SDS011;42503;39.928;-75.152;2023-04-15T23:09:51;7.85;;;2.92;;
56631;SDS011;42503;39.928;-75.152;2023-04-15T23:19:52;9.05;;;2.63;;
56631;SDS011;42503;39.928;-75.152;2023-04-15T23:29:53;6.20;;;2.17;;
56631;SDS011;42503;39.928;-75.152;2023-04-15T23:39:55;33.97;;;4.32;;
56631;SDS011;42503;39.928;-75.152;2023-04-15T23:49:56;10.05;;;2.90;;
56631;SDS011;42503;39.928;-75.152;2023-04-15T23:59:58;5.72;;;2.40;;
